createdAt,value
2022-11-11T00:00:21.923Z,89.28
2022-11-11T00:01:21.933Z,89.58
2022-11-11T00:02:21.977Z,89.69
2022-11-11T00:03:25.103Z,89.58
2022-11-11T00:04:21.900Z,89.28
2022-11-11T00:05:21.895Z,89.07
2022-11-11T00:06:21.876Z,89.28
2022-11-11T00:07:21.867Z,89.17
2022-11-11T00:08:21.871Z,89.07
2022-11-11T00:09:21.830Z,88.86
2022-11-11T00:10:21.812Z,88.90
2022-11-11T00:11:21.827Z,88.90
2022-11-11T00:12:26.345Z,89.01
2022-11-11T00:13:23.297Z,89.22
2022-11-11T00:14:21.783Z,89.31
2022-11-11T00:15:21.769Z,89.31
2022-11-11T00:16:21.770Z,89.31
2022-11-11T00:17:21.744Z,89.11
2022-11-11T00:18:22.089Z,89.01
2022-11-11T00:19:21.716Z,89.11
2022-11-11T00:20:24.335Z,89.22
2022-11-11T00:21:21.709Z,89.22
2022-11-11T00:22:21.702Z,89.31
2022-11-11T00:23:21.673Z,89.52
2022-11-11T00:24:21.674Z,89.83
2022-11-11T00:25:21.721Z,89.94
2022-11-11T00:27:22.663Z,89.83
2022-11-11T00:28:22.026Z,89.83
2022-11-11T00:29:21.642Z,89.94
2022-11-11T00:30:21.652Z,89.83
2022-11-11T00:31:21.620Z,89.83
2022-11-11T00:32:21.625Z,90.34
2022-11-11T00:33:21.652Z,90.55
2022-11-11T00:34:22.535Z,90.45
2022-11-11T00:35:21.535Z,90.49
2022-11-11T00:36:21.543Z,90.45
2022-11-11T00:37:21.516Z,90.66
2022-11-11T00:38:21.833Z,90.59
2022-11-11T00:39:21.526Z,90.59
2022-11-11T00:40:21.557Z,90.39
2022-11-11T00:41:21.562Z,90.28
2022-11-11T00:42:21.466Z,90.39
2022-11-11T00:43:21.507Z,90.39
2022-11-11T00:44:21.537Z,90.24
2022-11-11T00:45:21.451Z,90.28
2022-11-11T00:46:21.523Z,90.08
2022-11-11T00:47:21.411Z,89.87
2022-11-11T00:48:21.791Z,89.77
2022-11-11T00:49:21.383Z,89.77
2022-11-11T00:50:21.419Z,89.67
2022-11-11T00:51:21.456Z,89.46
2022-11-11T00:52:21.401Z,89.36
2022-11-11T00:53:26.252Z,89.25
2022-11-11T00:54:22.402Z,88.95
2022-11-11T00:55:21.329Z,88.74
2022-11-11T00:56:21.316Z,88.84
2022-11-11T00:57:21.356Z,88.64
2022-11-11T00:58:21.798Z,88.53
2022-11-11T00:59:21.309Z,88.53
2022-11-11T01:00:21.329Z,88.23
2022-11-11T01:01:21.295Z,88.12
2022-11-11T01:02:21.284Z,88.12
2022-11-11T01:03:21.241Z,87.92
2022-11-11T01:04:21.227Z,87.92
2022-11-11T01:05:21.330Z,87.81
2022-11-11T01:06:21.252Z,87.81
2022-11-11T01:07:21.410Z,87.71
2022-11-11T01:08:21.521Z,87.65
2022-11-11T01:09:21.163Z,87.65
2022-11-11T01:10:21.145Z,87.54
2022-11-11T01:11:21.178Z,87.65
2022-11-11T01:12:21.157Z,87.54
2022-11-11T01:13:21.237Z,87.44
2022-11-11T01:14:21.104Z,87.54
2022-11-11T01:15:21.139Z,87.75
2022-11-11T01:16:21.078Z,87.75
2022-11-11T01:17:21.125Z,87.59
2022-11-11T01:18:21.509Z,87.69
2022-11-11T01:19:21.215Z,87.79
2022-11-11T01:20:21.157Z,87.99
2022-11-11T01:21:21.024Z,87.99
2022-11-11T01:22:21.073Z,87.99
2022-11-11T01:23:21.064Z,88.10
2022-11-11T01:24:21.033Z,88.20
2022-11-11T01:25:21.054Z,88.41
2022-11-11T01:26:24.661Z,88.51
2022-11-11T01:27:22.027Z,88.62
2022-11-11T01:28:21.320Z,88.62
2022-11-11T01:29:20.997Z,88.72
2022-11-11T01:30:21.054Z,88.72
2022-11-11T01:31:20.977Z,88.82
2022-11-11T01:32:20.967Z,88.82
2022-11-11T01:33:20.939Z,88.51
2022-11-11T01:34:20.954Z,88.41
2022-11-11T01:35:20.906Z,88.31
2022-11-11T01:36:20.858Z,88.41
2022-11-11T01:37:20.894Z,88.51
2022-11-11T01:38:21.160Z,88.62
2022-11-11T01:39:20.886Z,88.51
2022-11-11T01:40:20.852Z,88.56
2022-11-11T01:41:20.827Z,88.65
2022-11-11T01:42:20.832Z,88.65
2022-11-11T01:43:20.940Z,88.76
2022-11-11T01:44:20.842Z,88.65
2022-11-11T01:45:20.857Z,88.96
2022-11-11T01:46:20.821Z,88.96
2022-11-11T01:47:20.827Z,88.86
2022-11-11T01:48:26.588Z,88.76
2022-11-11T01:49:21.808Z,88.76
2022-11-11T01:50:20.812Z,88.86
2022-11-11T01:51:20.814Z,88.96
2022-11-11T01:52:20.700Z,89.22
2022-11-11T01:53:21.139Z,89.22
2022-11-11T01:54:20.756Z,89.22
2022-11-11T01:55:20.764Z,89.22
2022-11-11T01:56:20.767Z,89.32
2022-11-11T01:57:20.734Z,89.32
2022-11-11T01:58:20.761Z,89.52
2022-11-11T01:59:20.609Z,89.83
2022-11-11T02:00:20.746Z,89.62
2022-11-11T02:01:20.799Z,89.42
2022-11-11T02:02:20.696Z,89.42
2022-11-11T02:03:20.755Z,90.14
2022-11-11T02:04:20.539Z,90.55
2022-11-11T02:05:20.692Z,90.25
2022-11-11T02:06:20.522Z,90.25
2022-11-11T02:07:20.558Z,90.14
2022-11-11T02:08:20.588Z,90.04
2022-11-11T02:09:20.634Z,90.45
2022-11-11T02:10:20.564Z,90.86
2022-11-11T02:11:20.526Z,91.38
2022-11-11T02:12:20.455Z,91.69
2022-11-11T02:13:20.581Z,92.61
2022-11-11T02:14:20.571Z,93.03
2022-11-11T02:15:20.560Z,93.03
2022-11-11T02:16:20.405Z,92.99
2022-11-11T02:17:21.499Z,92.88
2022-11-11T02:18:20.490Z,92.88
2022-11-11T02:19:20.414Z,92.78
2022-11-11T02:20:20.377Z,92.47
2022-11-11T02:21:20.357Z,92.16
2022-11-11T02:22:20.477Z,91.75
2022-11-11T02:23:20.565Z,91.34
2022-11-11T02:24:20.371Z,91.03
2022-11-11T02:25:20.439Z,91.03
2022-11-11T02:26:20.327Z,91.03
2022-11-11T02:27:20.362Z,90.92
2022-11-11T02:28:20.427Z,90.82
2022-11-11T02:29:20.295Z,90.61
2022-11-11T02:30:20.322Z,90.61
2022-11-11T02:31:20.408Z,90.72
2022-11-11T02:32:20.276Z,90.61
2022-11-11T02:33:20.520Z,90.31
2022-11-11T02:34:20.249Z,90.20
2022-11-11T02:35:20.208Z,90.10
2022-11-11T02:36:20.324Z,90.10
2022-11-11T02:37:20.322Z,90.41
2022-11-11T02:38:20.175Z,90.72
2022-11-11T02:39:23.728Z,90.51
2022-11-11T02:40:21.253Z,90.41
2022-11-11T02:41:20.144Z,90.25
2022-11-11T02:42:20.180Z,90.14
2022-11-11T02:43:20.315Z,90.14
2022-11-11T02:44:20.215Z,90.25
2022-11-11T02:45:20.183Z,90.25
2022-11-11T02:46:20.116Z,90.35
2022-11-11T02:47:20.064Z,90.04
2022-11-11T02:48:20.269Z,89.62
2022-11-11T02:49:20.081Z,89.32
2022-11-11T02:50:20.197Z,89.42
2022-11-11T02:51:20.206Z,89.32
2022-11-11T02:52:20.082Z,89.22
2022-11-11T02:53:20.031Z,88.90
2022-11-11T02:54:19.999Z,88.70
2022-11-11T02:55:19.999Z,88.80
2022-11-11T02:56:19.962Z,88.90
2022-11-11T02:57:20.107Z,88.80
2022-11-11T02:58:20.143Z,88.84
2022-11-11T02:59:20.122Z,88.95
2022-11-11T03:00:19.957Z,89.15
2022-11-11T03:01:20.223Z,89.15
2022-11-11T03:02:20.086Z,89.36
2022-11-11T03:03:19.957Z,89.46
2022-11-11T03:04:20.047Z,89.36
2022-11-11T03:05:20.135Z,89.25
2022-11-11T03:06:19.931Z,89.25
2022-11-11T03:07:20.072Z,89.36
2022-11-11T03:08:20.086Z,89.56
2022-11-11T03:09:19.892Z,89.77
2022-11-11T03:10:19.828Z,89.67
2022-11-11T03:11:19.985Z,89.87
2022-11-11T03:12:19.803Z,90.59
2022-11-11T03:13:20.044Z,90.49
2022-11-11T03:14:19.964Z,90.91
2022-11-11T03:15:19.868Z,91.83
2022-11-11T03:16:19.809Z,91.73
2022-11-11T03:17:19.880Z,91.42
2022-11-11T03:18:19.853Z,91.32
2022-11-11T03:19:19.808Z,91.32
2022-11-11T03:20:19.688Z,91.73
2022-11-11T03:22:24.155Z,92.04
2022-11-11T03:23:20.815Z,92.14
2022-11-11T03:24:19.649Z,92.25
2022-11-11T03:25:19.653Z,92.97
2022-11-11T03:26:19.630Z,93.24
2022-11-11T03:27:19.638Z,93.54
2022-11-11T03:28:19.610Z,93.65
2022-11-11T03:29:19.591Z,93.96
2022-11-11T03:30:19.608Z,93.96
2022-11-11T03:31:19.584Z,93.75
2022-11-11T03:32:19.592Z,93.75
2022-11-11T03:33:19.559Z,93.75
2022-11-11T03:34:19.541Z,93.85
2022-11-11T03:35:19.553Z,93.85
2022-11-11T03:36:19.522Z,93.85
2022-11-11T03:37:19.505Z,93.85
2022-11-11T03:38:19.483Z,93.91
2022-11-11T03:39:19.491Z,94.23
2022-11-11T03:40:19.484Z,94.43
2022-11-11T03:41:19.477Z,94.43
2022-11-11T03:42:19.454Z,94.43
2022-11-11T03:43:19.436Z,94.32
2022-11-11T03:44:19.427Z,94.23
2022-11-11T03:45:19.433Z,94.18
2022-11-11T03:46:19.406Z,94.18
2022-11-11T03:47:19.386Z,94.08
2022-11-11T03:48:19.404Z,94.08
2022-11-11T03:49:19.382Z,93.98
2022-11-11T03:50:19.368Z,93.98
2022-11-11T03:51:19.348Z,94.18
2022-11-11T03:52:19.340Z,94.28
2022-11-11T03:53:19.330Z,94.28
2022-11-11T03:54:19.332Z,94.28
2022-11-11T03:55:19.309Z,94.18
2022-11-11T03:56:20.258Z,94.28
2022-11-11T03:57:19.311Z,94.38
2022-11-11T03:58:19.279Z,94.49
2022-11-11T03:59:19.279Z,94.59
2022-11-11T04:00:19.250Z,94.59
2022-11-11T04:01:19.240Z,94.70
2022-11-11T04:02:19.246Z,94.90
2022-11-11T04:03:19.210Z,94.96
2022-11-11T04:04:19.201Z,95.00
2022-11-11T04:05:19.193Z,94.96
2022-11-11T04:06:19.182Z,94.96
2022-11-11T04:07:19.213Z,94.85
2022-11-11T04:08:19.171Z,94.96
2022-11-11T04:09:19.137Z,94.96
2022-11-11T04:10:19.153Z,95.06
2022-11-11T04:11:19.125Z,94.96
2022-11-11T04:12:19.122Z,95.17
2022-11-11T04:13:19.113Z,95.27
2022-11-11T04:14:19.117Z,95.37
2022-11-11T04:15:19.085Z,95.37
2022-11-11T04:16:19.067Z,95.48
2022-11-11T04:17:19.052Z,95.48
2022-11-11T04:18:19.044Z,95.37
2022-11-11T04:19:19.044Z,95.48
2022-11-11T04:20:19.033Z,95.48
2022-11-11T04:21:19.015Z,95.48
2022-11-11T04:22:19.002Z,95.37
2022-11-11T04:23:18.984Z,95.37
2022-11-11T04:24:18.977Z,95.23
2022-11-11T04:25:18.990Z,95.33
2022-11-11T04:26:18.958Z,95.33
2022-11-11T04:27:18.955Z,95.23
2022-11-11T04:28:18.933Z,95.12
2022-11-11T04:29:18.931Z,95.12
2022-11-11T04:30:18.919Z,95.12
2022-11-11T04:31:18.919Z,95.23
2022-11-11T04:32:18.889Z,95.23
2022-11-11T04:33:18.880Z,95.23
2022-11-11T04:34:18.859Z,95.12
2022-11-11T04:35:18.849Z,95.12
2022-11-11T04:36:18.852Z,95.12
2022-11-11T04:37:18.826Z,95.23
2022-11-11T04:38:18.830Z,95.12
2022-11-11T04:39:18.801Z,95.02
2022-11-11T04:40:18.796Z,95.02
2022-11-11T04:41:18.804Z,95.02
2022-11-11T04:42:18.777Z,94.92
2022-11-11T04:43:18.764Z,94.92
2022-11-11T04:44:18.747Z,94.87
2022-11-11T04:45:18.760Z,94.92
2022-11-11T04:46:18.722Z,94.77
2022-11-11T04:47:19.670Z,94.77
2022-11-11T04:48:18.709Z,94.87
2022-11-11T04:49:18.696Z,94.87
2022-11-11T04:50:18.704Z,94.92
2022-11-11T04:51:18.680Z,94.98
2022-11-11T04:52:18.661Z,94.98
2022-11-11T04:53:18.658Z,94.87
2022-11-11T04:54:18.635Z,94.77
2022-11-11T04:55:21.872Z,94.77
2022-11-11T04:56:18.617Z,94.77
2022-11-11T04:57:18.604Z,94.77
2022-11-11T04:58:18.597Z,94.87
2022-11-11T04:59:18.579Z,94.87
2022-11-11T05:00:18.599Z,94.87
2022-11-11T05:01:18.605Z,94.98
2022-11-11T05:02:18.548Z,94.98
2022-11-11T05:03:18.621Z,94.98
2022-11-11T05:04:18.550Z,94.98
2022-11-11T05:05:18.531Z,94.98
2022-11-11T05:06:18.507Z,94.98
2022-11-11T05:07:18.514Z,94.98
2022-11-11T05:08:18.481Z,94.98
2022-11-11T05:09:18.494Z,94.98
2022-11-11T05:10:18.463Z,94.98
2022-11-11T05:11:18.469Z,95.08
2022-11-11T05:12:18.468Z,95.08
2022-11-11T05:13:23.605Z,95.08
2022-11-11T05:14:19.426Z,95.08
2022-11-11T05:15:18.410Z,95.08
2022-11-11T05:16:18.430Z,94.98
2022-11-11T05:17:18.388Z,95.08
2022-11-11T05:18:18.382Z,94.98
2022-11-11T05:19:18.371Z,94.98
2022-11-11T05:20:18.350Z,94.87
2022-11-11T05:21:18.356Z,94.87
2022-11-11T05:22:18.333Z,94.87
2022-11-11T05:23:18.321Z,94.87
2022-11-11T05:24:18.310Z,94.77
2022-11-11T05:25:18.291Z,94.77
2022-11-11T05:26:18.305Z,94.77
2022-11-11T05:27:18.265Z,94.77
2022-11-11T05:28:18.260Z,94.87
2022-11-11T05:29:18.245Z,94.87
2022-11-11T05:30:18.254Z,94.87
2022-11-11T05:31:18.245Z,94.87
2022-11-11T05:32:18.214Z,94.98
2022-11-11T05:33:18.204Z,94.98
2022-11-11T05:34:19.142Z,94.98
2022-11-11T05:35:18.197Z,94.98
2022-11-11T05:36:18.177Z,94.98
2022-11-11T05:37:18.421Z,95.08
2022-11-11T05:38:18.162Z,95.49
2022-11-11T05:39:18.153Z,95.28
2022-11-11T05:40:18.126Z,94.98
2022-11-11T05:41:18.138Z,94.87
2022-11-11T05:42:18.110Z,94.77
2022-11-11T05:43:18.098Z,94.67
2022-11-11T05:44:18.111Z,94.67
2022-11-11T05:45:18.083Z,94.56
2022-11-11T05:46:18.074Z,94.56
2022-11-11T05:47:18.048Z,94.56
2022-11-11T05:48:18.048Z,94.46
2022-11-11T05:49:18.031Z,94.46
2022-11-11T05:50:18.042Z,94.36
2022-11-11T05:51:17.992Z,94.36
2022-11-11T05:52:18.971Z,94.36
2022-11-11T05:53:17.973Z,94.36
2022-11-11T05:54:17.973Z,94.30
2022-11-11T05:55:17.964Z,94.20
2022-11-11T05:56:17.972Z,94.09
2022-11-11T05:57:17.938Z,93.99
2022-11-11T05:58:17.922Z,93.88
2022-11-11T05:59:17.923Z,93.99
2022-11-11T06:00:17.900Z,93.99
2022-11-11T06:01:17.894Z,93.99
2022-11-11T06:02:17.881Z,93.99
2022-11-11T06:03:17.864Z,93.99
2022-11-11T06:04:18.615Z,93.99
2022-11-11T06:05:17.877Z,94.09
2022-11-11T06:06:17.853Z,94.09
2022-11-11T06:07:17.895Z,94.40
2022-11-11T06:08:17.846Z,94.40
2022-11-11T06:09:17.804Z,94.71
2022-11-11T06:10:17.804Z,94.51
2022-11-11T06:11:17.795Z,94.30
2022-11-11T06:12:17.780Z,94.09
2022-11-11T06:13:17.762Z,93.88
2022-11-11T06:14:17.757Z,93.79
2022-11-11T06:15:17.754Z,93.68
2022-11-11T06:16:17.729Z,93.68
2022-11-11T06:17:17.716Z,93.68
2022-11-11T06:18:17.728Z,93.68
2022-11-11T06:19:17.692Z,93.79
2022-11-11T06:20:17.668Z,93.68
2022-11-11T06:21:17.669Z,93.52
2022-11-11T06:22:17.669Z,93.52
2022-11-11T06:23:17.643Z,93.52
2022-11-11T06:24:17.619Z,93.62
2022-11-11T06:25:17.631Z,93.62
2022-11-11T06:26:17.609Z,93.52
2022-11-11T06:27:17.600Z,93.41
2022-11-11T06:28:17.609Z,93.41
2022-11-11T06:29:17.567Z,93.41
2022-11-11T06:30:47.665Z,93.31
2022-11-11T06:31:18.551Z,93.31
2022-11-11T06:32:17.554Z,93.52
2022-11-11T06:33:17.547Z,93.41
2022-11-11T06:34:17.518Z,93.52
2022-11-11T06:35:17.511Z,93.62
2022-11-11T06:36:17.506Z,93.62
2022-11-11T06:37:17.505Z,93.73
2022-11-11T06:38:17.494Z,93.73
2022-11-11T06:39:17.476Z,93.73
2022-11-11T06:40:21.537Z,93.52
2022-11-11T06:41:17.440Z,93.52
2022-11-11T06:42:17.443Z,93.62
2022-11-11T06:43:17.413Z,93.62
2022-11-11T06:44:17.417Z,93.62
2022-11-11T06:45:17.390Z,93.62
2022-11-11T06:46:18.527Z,93.41
2022-11-11T06:47:17.395Z,93.31
2022-11-11T06:48:17.358Z,93.01
2022-11-11T06:49:17.357Z,92.90
2022-11-11T06:50:17.338Z,92.90
2022-11-11T06:51:17.329Z,92.90
2022-11-11T06:52:17.333Z,93.01
2022-11-11T06:53:17.325Z,93.01
2022-11-11T06:54:17.286Z,93.01
2022-11-11T06:55:17.282Z,93.01
2022-11-11T06:56:17.291Z,92.80
2022-11-11T06:57:17.301Z,92.59
2022-11-11T06:58:17.273Z,92.49
2022-11-11T06:59:17.236Z,92.49
2022-11-11T07:00:17.227Z,92.38
2022-11-11T07:01:17.366Z,92.29
2022-11-11T07:02:17.210Z,92.18
2022-11-11T07:03:20.279Z,92.29
2022-11-11T07:04:18.218Z,92.29
2022-11-11T07:05:17.164Z,92.18
2022-11-11T07:06:17.163Z,92.08
2022-11-11T07:07:17.284Z,91.83
2022-11-11T07:08:17.148Z,91.77
2022-11-11T07:09:17.135Z,91.66
2022-11-11T07:10:17.126Z,91.66
2022-11-11T07:11:19.260Z,91.66
2022-11-11T07:12:17.134Z,91.62
2022-11-11T07:13:17.081Z,91.66
2022-11-11T07:14:17.104Z,91.72
2022-11-11T07:15:17.051Z,91.83
2022-11-11T07:16:17.050Z,91.83
2022-11-11T07:17:17.039Z,91.83
2022-11-11T07:18:17.028Z,91.93
2022-11-11T07:19:18.146Z,91.93
2022-11-11T07:20:17.007Z,91.93
2022-11-11T07:21:16.995Z,91.83
2022-11-11T07:22:16.994Z,91.83
2022-11-11T07:23:16.966Z,91.93
2022-11-11T07:24:16.958Z,91.72
2022-11-11T07:25:16.945Z,91.52
2022-11-11T07:26:16.941Z,91.31
2022-11-11T07:27:16.952Z,91.11
2022-11-11T07:28:16.915Z,90.90
2022-11-11T07:29:16.896Z,91.00
2022-11-11T07:30:16.893Z,91.00
2022-11-11T07:31:16.888Z,91.11
2022-11-11T07:32:16.889Z,91.21
2022-11-11T07:33:21.593Z,91.21
2022-11-11T07:34:17.850Z,91.21
2022-11-11T07:35:16.877Z,91.21
2022-11-11T07:36:16.831Z,91.21
2022-11-11T07:37:16.863Z,91.31
2022-11-11T07:38:16.811Z,91.42
2022-11-11T07:39:17.730Z,91.52
2022-11-11T07:40:16.815Z,91.52
2022-11-11T07:41:16.822Z,91.38
2022-11-11T07:42:31.129Z,91.47
2022-11-11T07:43:17.766Z,91.58
2022-11-11T07:44:16.733Z,91.78
2022-11-11T07:45:16.727Z,91.78
2022-11-11T07:46:16.716Z,91.68
2022-11-11T07:47:16.699Z,91.68
2022-11-11T07:48:16.703Z,91.78
2022-11-11T07:49:16.685Z,91.89
2022-11-11T07:50:16.716Z,91.74
2022-11-11T07:51:16.658Z,91.74
2022-11-11T07:52:16.649Z,91.74
2022-11-11T07:53:16.658Z,91.64
2022-11-11T07:54:16.625Z,91.53
2022-11-11T07:55:16.624Z,91.53
2022-11-11T07:56:16.619Z,91.44
2022-11-11T07:57:16.646Z,91.33
2022-11-11T07:58:16.591Z,91.33
2022-11-11T07:59:16.567Z,91.23
2022-11-11T08:00:16.558Z,91.23
2022-11-11T08:01:16.629Z,90.98
2022-11-11T08:02:16.554Z,90.98
2022-11-11T08:03:16.534Z,90.88
2022-11-11T08:04:16.531Z,90.88
2022-11-11T08:05:16.498Z,90.98
2022-11-11T08:06:16.489Z,90.98
2022-11-11T08:07:21.488Z,90.98
2022-11-11T08:08:17.468Z,90.98
2022-11-11T08:09:16.503Z,90.88
2022-11-11T08:10:16.462Z,90.88
2022-11-11T08:11:16.440Z,90.83
2022-11-11T08:12:21.839Z,90.73
2022-11-11T08:13:17.417Z,90.63
2022-11-11T08:14:16.421Z,90.53
2022-11-11T08:15:16.406Z,90.53
2022-11-11T08:16:16.388Z,90.53
2022-11-11T08:17:16.370Z,90.53
2022-11-11T08:18:16.375Z,90.53
2022-11-11T08:19:16.343Z,90.38
2022-11-11T08:20:16.337Z,90.69
2022-11-11T08:21:16.329Z,90.59
2022-11-11T08:22:16.304Z,90.38
2022-11-11T08:25:17.270Z,90.28
2022-11-11T08:26:16.257Z,90.38
2022-11-11T08:27:16.293Z,90.24
2022-11-11T08:28:16.257Z,90.24
2022-11-11T08:29:16.249Z,90.24
2022-11-11T08:30:16.225Z,90.34
2022-11-11T08:31:16.225Z,90.34
2022-11-11T08:32:17.151Z,90.44
2022-11-11T08:33:32.850Z,90.55
2022-11-11T08:34:17.182Z,90.55
2022-11-11T08:35:17.126Z,90.55
2022-11-11T08:36:20.473Z,90.44
2022-11-11T08:37:16.138Z,90.44
2022-11-11T08:38:16.137Z,90.44
2022-11-11T08:39:16.127Z,90.34
2022-11-11T08:40:16.112Z,90.34
2022-11-11T08:41:16.101Z,90.24
2022-11-11T08:42:17.036Z,90.09
2022-11-11T08:43:16.074Z,90.09
2022-11-11T08:44:16.059Z,89.99
2022-11-11T08:45:17.021Z,89.99
2022-11-11T08:46:16.065Z,89.89
2022-11-11T08:47:16.051Z,89.89
2022-11-11T08:48:16.027Z,89.89
2022-11-11T08:49:16.026Z,89.78
2022-11-11T08:50:15.989Z,89.89
2022-11-11T08:51:16.002Z,89.95
2022-11-11T08:52:15.971Z,89.95
2022-11-11T08:53:15.981Z,89.84
2022-11-11T08:54:15.948Z,89.84
2022-11-11T08:55:15.950Z,89.95
2022-11-11T08:56:15.968Z,89.75
2022-11-11T08:57:15.915Z,89.64
2022-11-11T08:58:19.775Z,89.64
2022-11-11T08:59:15.882Z,89.54
2022-11-11T09:00:15.893Z,89.54
2022-11-11T09:01:15.942Z,89.33
2022-11-11T09:02:15.853Z,89.29
2022-11-11T09:03:15.874Z,89.19
2022-11-11T09:04:43.226Z,89.09
2022-11-11T09:05:16.839Z,88.88
2022-11-11T09:06:15.880Z,88.98
2022-11-11T09:07:15.897Z,88.88
2022-11-11T09:08:15.806Z,88.78
2022-11-11T09:09:15.838Z,88.78
2022-11-11T09:10:15.798Z,88.68
2022-11-11T09:11:15.745Z,88.53
2022-11-11T09:12:15.757Z,88.43
2022-11-11T09:13:15.757Z,88.43
2022-11-11T09:14:15.741Z,88.43
2022-11-11T09:15:15.722Z,88.43
2022-11-11T09:16:15.699Z,88.43
2022-11-11T09:17:15.724Z,88.33
2022-11-11T09:18:15.666Z,88.23
2022-11-11T09:19:15.680Z,88.43
2022-11-11T09:20:17.739Z,88.33
2022-11-11T09:21:16.651Z,88.18
2022-11-11T09:22:15.642Z,88.18
2022-11-11T09:23:15.623Z,88.29
2022-11-11T09:24:15.604Z,88.29
2022-11-11T09:25:15.603Z,88.33
2022-11-11T09:26:15.601Z,88.53
2022-11-11T09:27:15.608Z,88.53
2022-11-11T09:28:15.569Z,88.49
2022-11-11T09:29:15.548Z,88.29
2022-11-11T09:30:15.543Z,88.29
2022-11-11T09:31:43.280Z,88.39
2022-11-11T09:32:16.514Z,88.39
2022-11-11T09:33:15.518Z,88.29
2022-11-11T09:34:15.484Z,88.18
2022-11-11T09:35:15.565Z,88.08
2022-11-11T09:36:15.473Z,88.08
2022-11-11T09:37:15.464Z,87.98
2022-11-11T09:38:15.464Z,87.88
2022-11-11T09:39:15.445Z,88.08
2022-11-11T09:40:15.424Z,88.08
2022-11-11T09:41:15.413Z,88.08
2022-11-11T09:42:15.407Z,87.98
2022-11-11T09:43:15.406Z,87.98
2022-11-11T09:44:15.398Z,87.98
2022-11-11T09:45:15.432Z,88.08
2022-11-11T09:46:15.358Z,87.98
2022-11-11T09:47:15.368Z,87.73
2022-11-11T09:48:15.329Z,87.43
2022-11-11T09:49:15.339Z,87.22
2022-11-11T09:50:15.334Z,87.12
2022-11-11T09:51:15.310Z,86.88
2022-11-11T09:52:15.283Z,86.77
2022-11-11T09:53:15.270Z,86.77
2022-11-11T09:54:20.286Z,86.67
2022-11-11T09:55:16.278Z,86.67
2022-11-11T09:56:30.268Z,86.57
2022-11-11T09:57:16.231Z,86.46
2022-11-11T09:58:15.245Z,86.43
2022-11-11T09:59:15.338Z,86.43
2022-11-11T10:00:19.033Z,86.12
2022-11-11T10:01:16.297Z,85.81
2022-11-11T10:02:16.042Z,85.61
2022-11-11T10:03:15.196Z,85.61
2022-11-11T10:04:15.152Z,85.61
2022-11-11T10:05:15.153Z,85.61
2022-11-11T10:06:18.399Z,85.50
2022-11-11T10:07:16.130Z,85.36
2022-11-11T10:08:15.105Z,85.36
2022-11-11T10:09:15.089Z,85.26
2022-11-11T10:10:15.084Z,85.06
2022-11-11T10:11:15.086Z,85.06
2022-11-11T10:12:15.055Z,85.20
2022-11-11T10:13:15.062Z,85.30
2022-11-11T10:14:15.047Z,85.16
2022-11-11T10:15:15.049Z,85.36
2022-11-11T10:16:15.033Z,85.26
2022-11-11T10:17:15.026Z,85.16
2022-11-11T10:18:17.581Z,85.06
2022-11-11T10:19:14.999Z,85.06
2022-11-11T10:20:14.995Z,85.16
2022-11-11T10:21:14.978Z,84.85
2022-11-11T10:22:14.943Z,84.85
2022-11-11T10:23:14.960Z,84.65
2022-11-11T10:24:14.926Z,84.55
2022-11-11T10:25:14.917Z,84.55
2022-11-11T10:26:14.903Z,84.44
2022-11-11T10:27:14.893Z,84.34
2022-11-11T10:28:14.893Z,84.44
2022-11-11T10:29:14.880Z,84.34
2022-11-11T10:30:14.871Z,84.09
2022-11-11T10:31:14.854Z,84.20
2022-11-11T10:32:14.962Z,84.30
2022-11-11T10:33:14.855Z,84.30
2022-11-11T10:34:14.822Z,84.41
2022-11-11T10:35:14.806Z,84.30
2022-11-11T10:36:14.790Z,84.41
2022-11-11T10:37:14.785Z,84.50
2022-11-11T10:38:14.774Z,84.71
2022-11-11T10:39:14.814Z,84.50
2022-11-11T10:40:14.746Z,84.50
2022-11-11T10:41:14.740Z,84.41
2022-11-11T10:42:14.742Z,84.41
2022-11-11T10:43:14.732Z,84.41
2022-11-11T10:44:14.719Z,84.30
2022-11-11T10:45:14.686Z,84.41
2022-11-11T10:46:14.674Z,84.26
2022-11-11T10:47:14.686Z,84.16
2022-11-11T10:48:14.645Z,83.95
2022-11-11T10:49:14.715Z,83.85
2022-11-11T10:50:14.626Z,83.75
2022-11-11T10:51:14.626Z,83.54
2022-11-11T10:52:14.635Z,83.54
2022-11-11T10:53:14.588Z,83.54
2022-11-11T10:54:14.589Z,83.54
2022-11-11T10:55:14.568Z,83.24
2022-11-11T10:56:14.569Z,83.04
2022-11-11T10:57:14.539Z,82.79
2022-11-11T10:58:14.541Z,82.59
2022-11-11T10:59:14.536Z,82.39
2022-11-11T11:00:14.518Z,82.08
2022-11-11T11:01:14.550Z,81.98
2022-11-11T11:02:14.492Z,81.87
2022-11-11T11:03:14.496Z,81.77
2022-11-11T11:04:14.480Z,81.87
2022-11-11T11:05:14.464Z,81.84
2022-11-11T11:06:14.466Z,81.63
2022-11-11T11:07:14.531Z,81.63
2022-11-11T11:08:14.430Z,81.43
2022-11-11T11:09:14.413Z,81.43
2022-11-11T11:10:14.417Z,81.32
2022-11-11T11:11:14.412Z,81.23
2022-11-11T11:12:14.382Z,81.12
2022-11-11T11:13:14.366Z,80.61
2022-11-11T11:14:14.360Z,80.82
2022-11-11T11:15:14.368Z,80.82
2022-11-11T11:16:14.338Z,80.91
2022-11-11T11:17:14.339Z,81.02
2022-11-11T11:18:14.329Z,80.91
2022-11-11T11:19:14.300Z,80.91
2022-11-11T11:20:14.285Z,80.91
2022-11-11T11:21:14.281Z,80.61
2022-11-11T11:22:14.278Z,80.61
2022-11-11T11:23:14.264Z,80.61
2022-11-11T11:24:14.254Z,80.61
2022-11-11T11:25:14.242Z,80.82
2022-11-11T11:26:14.218Z,80.78
2022-11-11T11:27:14.231Z,80.78
2022-11-11T11:28:14.273Z,80.57
2022-11-11T11:29:14.182Z,80.37
2022-11-11T11:30:17.082Z,80.47
2022-11-11T11:31:14.160Z,80.37
2022-11-11T11:32:14.180Z,80.27
2022-11-11T11:33:15.097Z,79.86
2022-11-11T11:34:14.132Z,79.96
2022-11-11T11:35:14.133Z,79.66
2022-11-11T11:36:14.113Z,79.35
2022-11-11T11:37:14.127Z,79.35
2022-11-11T11:38:14.082Z,79.45
2022-11-11T11:39:14.073Z,79.45
2022-11-11T11:40:14.066Z,79.41
2022-11-11T11:41:14.060Z,79.41
2022-11-11T11:42:14.055Z,79.41
2022-11-11T11:43:14.031Z,78.91
2022-11-11T11:44:14.117Z,78.50
2022-11-11T11:45:14.086Z,78.80
2022-11-11T11:46:14.004Z,78.80
2022-11-11T11:47:14.011Z,78.91
2022-11-11T11:48:31.066Z,78.80
2022-11-11T11:49:14.964Z,78.39
2022-11-11T11:50:13.986Z,78.30
2022-11-11T11:51:13.942Z,78.19
2022-11-11T11:52:13.933Z,78.16
2022-11-11T11:53:14.884Z,78.05
2022-11-11T11:54:13.939Z,77.85
2022-11-11T11:55:13.888Z,77.85
2022-11-11T11:56:13.889Z,77.75
2022-11-11T11:57:13.880Z,77.95
2022-11-11T11:58:14.824Z,77.95
2022-11-11T11:59:13.857Z,77.64
2022-11-11T12:00:13.834Z,77.64
2022-11-11T12:01:13.840Z,77.64
2022-11-11T12:02:13.872Z,77.64
2022-11-11T12:03:13.817Z,77.51
2022-11-11T12:04:13.789Z,77.51
2022-11-11T12:05:13.790Z,77.51
2022-11-11T12:06:13.774Z,77.91
2022-11-11T12:07:13.823Z,78.02
2022-11-11T12:08:13.763Z,77.81
2022-11-11T12:09:13.758Z,78.02
2022-11-11T12:10:13.738Z,78.12
2022-11-11T12:11:13.715Z,78.12
2022-11-11T12:12:13.724Z,78.02
2022-11-11T12:13:13.713Z,77.71
2022-11-11T12:14:13.685Z,77.61
2022-11-11T12:15:13.674Z,77.61
2022-11-11T12:16:13.664Z,77.61
2022-11-11T12:17:13.664Z,77.61
2022-11-11T12:18:13.651Z,77.61
2022-11-11T12:19:13.636Z,77.20
2022-11-11T12:20:13.617Z,77.17
2022-11-11T12:21:13.620Z,77.06
2022-11-11T12:22:13.600Z,77.17
2022-11-11T12:23:13.599Z,76.86
2022-11-11T12:24:13.601Z,76.86
2022-11-11T12:25:13.586Z,76.65
2022-11-11T12:26:13.568Z,76.45
2022-11-11T12:27:13.573Z,76.35
2022-11-11T12:28:13.545Z,75.84
2022-11-11T12:29:13.517Z,75.84
2022-11-11T12:30:13.543Z,75.70
2022-11-11T12:31:13.491Z,75.60
2022-11-11T12:32:13.493Z,75.81
2022-11-11T12:33:13.481Z,75.81
2022-11-11T12:34:13.472Z,75.81
2022-11-11T12:35:13.463Z,75.50
2022-11-11T12:36:13.444Z,75.50
2022-11-11T12:37:13.433Z,75.20
2022-11-11T12:38:13.412Z,74.89
2022-11-11T12:39:13.395Z,74.69
2022-11-11T12:40:13.518Z,74.79
2022-11-11T12:41:13.386Z,74.48
2022-11-11T12:42:13.501Z,74.55
2022-11-11T12:43:13.353Z,74.35
2022-11-11T12:44:13.362Z,74.45
2022-11-11T12:45:13.370Z,74.04
2022-11-11T12:46:13.323Z,74.04
2022-11-11T12:47:13.335Z,73.94
2022-11-11T12:48:13.313Z,74.04
2022-11-11T12:49:13.287Z,74.04
2022-11-11T12:50:13.372Z,74.15
2022-11-11T12:51:13.268Z,73.94
2022-11-11T12:52:13.287Z,74.35
2022-11-11T12:53:13.271Z,73.84
2022-11-11T12:54:13.227Z,73.84
2022-11-11T12:55:13.226Z,73.84
2022-11-11T12:56:13.214Z,73.74